Información del aeropuerto LEGE

Información de pista
Pista 02 Longitud 7874 ft Anchura 148 ft
Elevación 403 ft Umbral 0 ft Rumbo 16
Pista 20 Longitud 7874 ft Anchura 148 ft
Elevación 468 ft Umbral 0 ft Rumbo 196
Frecuencias del aeropuerto
Tipo APP Nombre APP Frecuencia 120.9 MHZ
Tipo GND Nombre GND Frecuencia 121.7 MHZ
Tipo TWR Nombre TWR Frecuencia 118.5 MHZ
Radioayudas del aeropuerto
Tipo VOR-DME Nombre Gerona Frecuencia 114100 KHZ
Tipo NDB Nombre Gerona Frecuencia 412 KHZ
Información meteorológica del aeropuerto y NOTAM
ADDS - METARS form results

(0043 UTC 24 June 2021)
Data provider http://aviationweather.gov/metar/data/
 
METAR text: LEGE 240030Z VRB01KT CAVOK 15/13 Q1019
Conditions at: LEGE (GERONA/COSTA BRA, ES) observed 0030 UTC 24 June 2021
Temperature: 15.0°C (59°F)
Dewpoint: 13.0°C (55°F) [RH = 88%]
Pressure (altimeter): 30.09 inches Hg (1019.0 mb)
Winds: variable direction winds at 1 MPH (1 knots; 0.5 m/s)
Visibility: 6 or more miles (10+ km)
Ceiling: ceiling and visibility are OK
Clouds: unknown
Weather: no significant weather observed at this time

METAR text: LEGE 240000Z 36004KT 320V050 CAVOK 17/14 Q1019
Conditions at: LEGE (GERONA/COSTA BRA, ES) observed 0000 UTC 24 June 2021
Temperature: 17.0°C (63°F)
Dewpoint: 14.0°C (57°F) [RH = 82%]
Pressure (altimeter): 30.09 inches Hg (1019.0 mb)
Winds: from the N (360 degrees) at 5 MPH (4 knots; 2.1 m/s)
Visibility: 6 or more miles (10+ km)
Ceiling: ceiling and visibility are OK
Clouds: unknown
Weather: no significant weather observed at this time

Forecast for: LEGE (GERONA/COSTA BRA, ES)
Text: TAF LEGE 232300Z 2400/2424 VRB03KT 9999 FEW060 TX27/2413Z TN14/2406Z
Forecast period: 0000 to 1000 UTC 24 June 2021
Forecast type: FROM: standard forecast or significant change
Winds: variable direction winds at 3 MPH (3 knots; 1.5 m/s)
Visibility: 6 or more miles (10+ km)
Ceiling: at least 12,000 feet AGL
Clouds: few clouds at 6000 feet AGL
Weather: no significant weather forecast for this period
Text: BECMG 2410/2412 18010KT
Forecast period: 1000 to 1800 UTC 24 June 2021
Forecast type: BECOMING: Conditions expected to become as follows by 1200 UTC 24 June 2021
Winds: from the S (180 degrees) at 12 MPH (10 knots; 5.1 m/s)
Visibility: 6 or more miles (10+ km)
Ceiling: at least 12,000 feet AGL
Clouds: few clouds at 6000 feet AGL
Weather: no significant weather forecast for this period
Text: BECMG 2418/2420 VRB04KT
Forecast period: 1800 UTC 24 June 2021 to 0000 UTC 25 June 2021
Forecast type: BECOMING: Conditions expected to become as follows by 2000 UTC 24 June 2021
Winds: variable direction winds at 5 MPH (4 knots; 2.1 m/s)
Visibility: 6 or more miles (10+ km)
Ceiling: at least 12,000 feet AGL
Clouds: few clouds at 6000 feet AGL
Weather: no significant weather forecast for this period